Aviation Digital Data Service (ADDS)

Output produced by METARs form (0222 UTC 22 April 2019)
found at http://www.aviationweather.gov/metar/data/
 
Forecast for: UDYZ (ZVARTNOTS , AM)
Text: TAF UDYZ 212302Z 2200/2224 14006KT 9999 SCT040 BKN100
Forecast period: 0000 UTC 22 April 2019 to 0000 UTC 23 April 2019
Forecast type: FROM: standard forecast or significant change
Winds: from the SE (140 degrees) at 7 MPH (6 knots; 3.1 m/s)
Visibility: 6 or more miles 10+ km)
Ceiling: 10000 feet AGL
Clouds: scattered clouds at 4000 feet AGL
broken clouds at 10000 feet AGL
Weather: no significant weather forecast for this period
Text: TEMPO 2200/2212 VRB16KT -SHRA BKN030CB
Forecast period: 0000 to 1200 UTC 22 April 2019
Forecast type: TEMPORARY: The following changes expected for less than half the time period
Winds: variable direction winds at 18 MPH (16 knots; 8.2 m/s)
Visibility: missing
Ceiling: 3000 feet AGL
Clouds: broken clouds at 3000 feet AGL
Weather: -SHRA  (light rain showers)